Time,TemperatureF,DewpointF,PressureIn,WindDirection,WindDirectionDegrees,WindSpeedMPH,WindSpeedGustMPH,Humidity,HourlyPrecipIn,Conditions,Clouds,dailyrainin,SoftwareType,DateUTC
2013-03-17 00:00:00,32.2,15.7,29.89,East,82,1.0,0.0,50,0.00,,,0.00,WeatherTracker,2013-03-17 04:00:00,
2013-03-17 00:10:00,32.0,15.9,29.88,East,90,1.0,0.0,51,0.00,,,0.00,WeatherTracker,2013-03-17 04:10:00,
2013-03-17 00:15:00,31.7,15.7,29.88,ESE,103,1.0,0.0,51,0.00,,,0.00,WeatherTracker,2013-03-17 04:15:00,
2013-03-17 00:20:00,31.6,16.5,29.88,ESE,110,0.0,0.0,53,0.00,,,0.00,WeatherTracker,2013-03-17 04:20:00,
2013-03-17 00:30:00,31.3,16.2,29.89,ESE,110,1.0,0.0,53,0.00,,,0.00,WeatherTracker,2013-03-17 04:30:00,
2013-03-17 00:35:00,31.1,16.4,29.89,East,101,2.0,0.0,54,0.00,,,0.00,WeatherTracker,2013-03-17 04:35:00,
2013-03-17 00:40:00,30.9,16.7,29.89,SE,141,2.0,0.0,55,0.00,,,0.00,WeatherTracker,2013-03-17 04:40:00,
2013-03-17 00:50:00,30.5,15.4,29.89,East,79,1.0,0.0,53,0.00,,,0.00,WeatherTracker,2013-03-17 04:50:00,
2013-03-17 00:55:00,30.4,15.8,29.89,East,90,0.0,0.0,54,0.00,,,0.00,WeatherTracker,2013-03-17 04:55:00,
2013-03-17 01:00:00,30.3,15.2,29.90,ENE,78,1.0,0.0,53,0.00,,,0.00,WeatherTracker,2013-03-17 05:00:00,
2013-03-17 01:10:00,30.1,15.9,29.89,ENE,71,0.0,0.0,55,0.00,,,0.00,WeatherTracker,2013-03-17 05:10:00,
2013-03-17 01:15:00,30.0,15.8,29.90,ENE,71,0.0,0.0,55,0.00,,,0.00,WeatherTracker,2013-03-17 05:15:00,
2013-03-17 01:20:00,29.9,15.3,29.90,ENE,71,0.0,0.0,54,0.00,,,0.00,WeatherTracker,2013-03-17 05:20:00,
2013-03-17 01:30:00,29.6,15.9,29.90,ENE,71,0.0,0.0,56,0.00,,,0.00,WeatherTracker,2013-03-17 05:30:00,
2013-03-17 01:35:00,29.5,15.8,29.90,ENE,71,0.0,0.0,56,0.00,,,0.00,WeatherTracker,2013-03-17 05:35:00,
2013-03-17 01:40:00,29.3,16.0,29.90,ENE,71,0.0,0.0,57,0.00,,,0.00,WeatherTracker,2013-03-17 05:40:00,
2013-03-17 01:45:00,29.1,16.6,29.90,ENE,71,0.0,0.0,59,0.00,,,0.00,WeatherTracker,2013-03-17 05:45:00,
2013-03-17 01:50:00,28.8,15.9,29.90,ENE,73,1.0,0.0,58,0.00,,,0.00,WeatherTracker,2013-03-17 05:50:00,
2013-03-17 01:55:00,28.5,15.6,29.90,ENE,73,0.0,0.0,58,0.00,,,0.00,WeatherTracker,2013-03-17 05:55:00,
2013-03-17 02:05:00,28.2,16.1,29.91,NNW,342,2.0,0.0,60,0.00,,,0.00,WeatherTracker,2013-03-17 06:05:00,
2013-03-17 02:10:00,28.0,17.1,29.91,West,261,2.0,0.0,63,0.00,,,0.00,WeatherTracker,2013-03-17 06:10:00,
2013-03-17 02:20:00,27.8,16.5,29.90,West,261,0.0,0.0,62,0.00,,,0.00,WeatherTracker,2013-03-17 06:20:00,
2013-03-17 02:30:00,27.5,16.9,29.90,West,261,0.0,0.0,64,0.00,,,0.00,WeatherTracker,2013-03-17 06:30:00,
2013-03-17 02:35:00,27.4,16.5,29.90,West,261,0.0,0.0,63,0.00,,,0.00,WeatherTracker,2013-03-17 06:35:00,
2013-03-17 02:40:00,27.2,16.7,29.90,West,261,0.0,0.0,64,0.00,,,0.00,WeatherTracker,2013-03-17 06:40:00,
2013-03-17 02:50:00,26.9,17.4,29.90,West,261,2.0,0.0,67,0.00,,,0.00,WeatherTracker,2013-03-17 06:50:00,
2013-03-17 03:00:00,26.7,17.9,29.90,West,261,1.0,0.0,69,0.00,,,0.00,WeatherTracker,2013-03-17 07:00:00,
2013-03-17 03:05:00,26.5,18.1,29.91,West,261,0.0,0.0,70,0.00,,,0.00,WeatherTracker,2013-03-17 07:05:00,
2013-03-17 03:10:00,26.4,17.6,29.91,West,261,0.0,0.0,69,0.00,,,0.00,WeatherTracker,2013-03-17 07:10:00,
2013-03-17 03:15:00,26.3,17.9,29.91,West,267,2.0,0.0,70,0.00,,,0.00,WeatherTracker,2013-03-17 07:15:00,
2013-03-17 03:25:00,26.0,17.9,29.91,West,267,1.0,0.0,71,0.00,,,0.00,WeatherTracker,2013-03-17 07:25:00,
2013-03-17 03:30:00,25.9,17.8,29.91,West,267,1.0,0.0,71,0.00,,,0.00,WeatherTracker,2013-03-17 07:30:00,
2013-03-17 03:35:00,25.9,18.1,29.90,West,267,1.0,0.0,72,0.00,,,0.00,WeatherTracker,2013-03-17 07:35:00,
2013-03-17 03:45:00,25.7,17.9,29.91,West,267,0.0,0.0,72,0.00,,,0.00,WeatherTracker,2013-03-17 07:45:00,
2013-03-17 03:55:00,25.5,17.8,29.92,West,267,1.0,0.0,72,0.00,,,0.00,WeatherTracker,2013-03-17 07:55:00,
2013-03-17 04:05:00,25.3,17.6,29.92,West,268,2.0,0.0,72,0.00,,,0.00,WeatherTracker,2013-03-17 08:05:00,
2013-03-17 04:10:00,25.3,17.2,29.92,West,268,2.0,0.0,71,0.00,,,0.00,WeatherTracker,2013-03-17 08:10:00,
2013-03-17 04:20:00,25.3,17.6,29.92,West,265,1.0,0.0,72,0.00,,,0.00,WeatherTracker,2013-03-17 08:20:00,
2013-03-17 04:30:00,25.1,18.3,29.92,West,265,1.0,0.0,75,0.00,,,0.00,WeatherTracker,2013-03-17 08:30:00,
2013-03-17 04:35:00,25.0,18.5,29.92,West,265,1.0,0.0,76,0.00,,,0.00,WeatherTracker,2013-03-17 08:35:00,
2013-03-17 04:40:00,24.9,18.4,29.93,West,265,1.0,0.0,76,0.00,,,0.00,WeatherTracker,2013-03-17 08:40:00,
2013-03-17 04:45:00,24.8,18.0,29.93,West,265,0.0,0.0,75,0.00,,,0.00,WeatherTracker,2013-03-17 08:45:00,
2013-03-17 04:50:00,24.8,17.7,29.93,West,265,1.0,0.0,74,0.00,,,0.00,WeatherTracker,2013-03-17 08:50:00,
2013-03-17 04:55:00,24.8,18.0,29.93,West,265,0.0,0.0,75,0.00,,,0.00,WeatherTracker,2013-03-17 08:55:00,
2013-03-17 05:00:00,24.7,18.2,29.93,West,265,1.0,0.0,76,0.00,,,0.00,WeatherTracker,2013-03-17 09:00:00,
2013-03-17 05:10:00,24.5,18.3,29.93,West,265,1.0,0.0,77,0.00,,,0.00,WeatherTracker,2013-03-17 09:10:00,
2013-03-17 05:15:00,24.4,18.2,29.93,West,265,1.0,0.0,77,0.00,,,0.00,WeatherTracker,2013-03-17 09:15:00,
2013-03-17 05:25:00,24.2,18.3,29.94,West,265,1.0,0.0,78,0.00,,,0.00,WeatherTracker,2013-03-17 09:25:00,
2013-03-17 05:35:00,24.2,17.4,29.94,NW,313,1.0,0.0,75,0.00,,,0.00,WeatherTracker,2013-03-17 09:35:00,
2013-03-17 05:45:00,24.4,17.6,29.94,West,281,1.0,0.0,75,0.00,,,0.00,WeatherTracker,2013-03-17 09:45:00,
2013-03-17 05:50:00,24.4,18.2,29.94,West,275,1.0,0.0,77,0.00,,,0.00,WeatherTracker,2013-03-17 09:50:00,
2013-03-17 06:00:00,24.2,18.0,29.95,WNW,286,1.0,0.0,77,0.00,,,0.00,WeatherTracker,2013-03-17 10:00:00,
2013-03-17 06:05:00,24.1,18.0,29.95,WNW,284,2.0,0.0,77,0.00,,,0.00,WeatherTracker,2013-03-17 10:05:00,
2013-03-17 06:10:00,24.0,18.2,29.95,WNW,286,1.0,0.0,78,0.00,,,0.00,WeatherTracker,2013-03-17 10:10:00,
2013-03-17 06:15:00,23.9,17.8,29.95,WNW,285,0.0,0.0,77,0.00,,,0.00,WeatherTracker,2013-03-17 10:15:00,
2013-03-17 06:25:00,23.8,18.0,29.94,WNW,285,0.0,0.0,78,0.00,,,0.00,WeatherTracker,2013-03-17 10:25:00,
2013-03-17 06:35:00,23.6,17.8,29.95,WNW,285,1.0,0.0,78,0.00,,,0.00,WeatherTracker,2013-03-17 10:35:00,
2013-03-17 06:40:00,23.6,18.1,29.95,WNW,285,1.0,0.0,79,0.00,,,0.00,WeatherTracker,2013-03-17 10:40:00,
2013-03-17 06:50:00,23.4,17.9,29.96,West,281,2.0,0.0,79,0.00,,,0.00,WeatherTracker,2013-03-17 10:50:00,
2013-03-17 06:55:00,23.5,17.7,29.97,WNW,290,2.0,0.0,78,0.00,,,0.00,WeatherTracker,2013-03-17 10:55:00,
2013-03-17 07:05:00,23.9,18.1,29.97,WNW,284,0.0,0.0,78,0.00,,,0.00,WeatherTracker,2013-03-17 11:05:00,
2013-03-17 07:10:00,24.0,17.9,29.98,WNW,286,1.0,0.0,77,0.00,,,0.00,WeatherTracker,2013-03-17 11:10:00,
2013-03-17 07:15:00,24.2,18.0,29.98,WNW,290,3.0,0.0,77,0.00,,,0.00,WeatherTracker,2013-03-17 11:15:00,
2013-03-17 07:20:00,24.4,17.9,29.98,NW,306,3.0,0.0,76,0.00,,,0.00,WeatherTracker,2013-03-17 11:20:00,
2013-03-17 07:25:00,24.5,18.3,29.98,WNW,290,3.0,0.0,77,0.00,,,0.00,WeatherTracker,2013-03-17 11:25:00,
2013-03-17 07:30:00,24.8,18.3,29.99,WNW,288,2.0,0.0,76,0.00,,,0.00,WeatherTracker,2013-03-17 11:30:00,
2013-03-17 07:40:00,25.6,18.5,30.00,NNE,15,4.0,0.0,74,0.00,,,0.00,WeatherTracker,2013-03-17 11:40:00,
2013-03-17 07:45:00,26.1,18.7,30.00,North,350,3.0,0.0,73,0.00,,,0.00,WeatherTracker,2013-03-17 11:45:00,
2013-03-17 07:55:00,27.0,18.5,30.01,North,360,5.0,0.0,70,0.00,,,0.00,WeatherTracker,2013-03-17 11:55:00,
2013-03-17 08:05:00,27.7,18.9,30.02,North,355,4.0,0.0,69,0.00,,,0.00,WeatherTracker,2013-03-17 12:05:00,
2013-03-17 08:10:00,28.0,18.8,30.02,NW,306,2.0,0.0,68,0.00,,,0.00,WeatherTracker,2013-03-17 12:10:00,
2013-03-17 08:20:00,28.6,18.7,30.03,West,273,0.0,0.0,66,0.00,,,0.00,WeatherTracker,2013-03-17 12:20:00,
2013-03-17 08:30:00,29.1,18.5,30.04,North,9,2.0,0.0,64,0.00,,,0.00,WeatherTracker,2013-03-17 12:30:00,
2013-03-17 08:35:00,29.2,18.6,30.04,West,280,5.0,0.0,64,0.00,,,0.00,WeatherTracker,2013-03-17 12:35:00,
2013-03-17 08:40:00,29.4,18.4,30.04,NE,36,5.0,0.0,63,0.00,,,0.00,WeatherTracker,2013-03-17 12:40:00,
2013-03-17 08:50:00,29.5,18.5,30.04,NW,309,1.0,0.0,63,0.00,,,0.00,WeatherTracker,2013-03-17 12:50:00,
2013-03-17 09:00:00,29.8,18.0,30.04,NNE,13,4.0,0.0,61,0.00,,,0.00,WeatherTracker,2013-03-17 13:00:00,
2013-03-17 09:05:00,29.8,17.6,30.04,NE,42,4.0,0.0,60,0.00,,,0.00,WeatherTracker,2013-03-17 13:05:00,
2013-03-17 09:10:00,29.9,17.7,30.04,NNW,335,4.0,0.0,60,0.00,,,0.00,WeatherTracker,2013-03-17 13:10:00,
2013-03-17 09:15:00,30.3,17.7,30.04,NW,317,0.0,0.0,59,0.00,,,0.00,WeatherTracker,2013-03-17 13:15:00,
2013-03-17 09:20:00,30.6,17.2,30.04,ENE,61,1.0,0.0,57,0.00,,,0.00,WeatherTracker,2013-03-17 13:20:00,
2013-03-17 09:30:00,31.0,15.9,30.05,NE,40,5.0,0.0,53,0.00,,,0.00,WeatherTracker,2013-03-17 13:30:00,
2013-03-17 09:35:00,31.1,15.1,30.05,East,85,3.0,0.0,51,0.00,,,0.00,WeatherTracker,2013-03-17 13:35:00,
2013-03-17 09:45:00,31.7,14.8,30.04,NNW,338,2.0,0.0,49,0.00,,,0.00,WeatherTracker,2013-03-17 13:45:00,
2013-03-17 09:50:00,32.2,13.8,30.04,ESE,120,5.0,0.0,46,0.00,,,0.00,WeatherTracker,2013-03-17 13:50:00,
2013-03-17 10:00:00,32.2,13.3,30.04,NNW,336,6.0,0.0,45,0.00,,,0.00,WeatherTracker,2013-03-17 14:00:00,
2013-03-17 10:10:00,32.7,12.7,30.04,WNW,298,8.0,0.0,43,0.00,,,0.00,WeatherTracker,2013-03-17 14:10:00,
2013-03-17 10:15:00,32.8,12.8,30.04,NNE,14,5.0,0.0,43,0.00,,,0.00,WeatherTracker,2013-03-17 14:15:00,
2013-03-17 10:20:00,32.9,12.9,30.04,NNW,347,3.0,0.0,43,0.00,,,0.00,WeatherTracker,2013-03-17 14:20:00,
2013-03-17 10:25:00,32.9,12.9,30.04,NW,324,4.0,0.0,43,0.00,,,0.00,WeatherTracker,2013-03-17 14:25:00,
2013-03-17 10:30:00,32.6,13.1,30.04,WNW,288,4.0,0.0,44,0.00,,,0.00,WeatherTracker,2013-03-17 14:30:00,
2013-03-17 10:40:00,33.4,14.4,30.04,NNE,31,2.0,0.0,45,0.00,,,0.00,WeatherTracker,2013-03-17 14:40:00,
2013-03-17 10:45:00,33.8,14.2,30.04,ENE,78,1.0,0.0,44,0.00,,,0.00,WeatherTracker,2013-03-17 14:45:00,
2013-03-17 10:55:00,34.3,14.2,30.04,West,259,3.0,0.0,43,0.00,,,0.00,WeatherTracker,2013-03-17 14:55:00,
2013-03-17 11:00:00,34.4,13.7,30.04,West,266,4.0,0.0,42,0.00,,,0.00,WeatherTracker,2013-03-17 15:00:00,
2013-03-17 11:10:00,34.6,13.9,30.04,NW,319,1.0,0.0,42,0.00,,,0.00,WeatherTracker,2013-03-17 15:10:00,
2013-03-17 11:20:00,35.1,14.3,30.04,WNW,302,3.0,0.0,42,0.00,,,0.00,WeatherTracker,2013-03-17 15:20:00,
2013-03-17 11:25:00,35.3,14.5,30.04,WNW,284,6.0,0.0,42,0.00,,,0.00,WeatherTracker,2013-03-17 15:25:00,
2013-03-17 11:35:00,35.3,14.0,30.04,NNW,346,6.0,0.0,41,0.00,,,0.00,WeatherTracker,2013-03-17 15:35:00,
2013-03-17 11:40:00,35.2,13.9,30.04,NE,42,2.0,0.0,41,0.00,,,0.00,WeatherTracker,2013-03-17 15:40:00,
2013-03-17 11:45:00,35.4,14.1,30.04,WNW,299,4.0,0.0,41,0.00,,,0.00,WeatherTracker,2013-03-17 15:45:00,
2013-03-17 11:55:00,36.1,14.1,30.05,North,5,6.0,0.0,40,0.00,,,0.00,WeatherTracker,2013-03-17 15:55:00,
2013-03-17 12:00:00,36.4,13.8,30.05,North,9,3.0,0.0,39,0.00,,,0.00,WeatherTracker,2013-03-17 16:00:00,
2013-03-17 12:10:00,36.3,13.2,30.05,NNE,25,2.0,0.0,38,0.00,,,0.00,WeatherTracker,2013-03-17 16:10:00,
2013-03-17 12:15:00,36.8,13.0,30.05,NNW,348,4.0,0.0,37,0.00,,,0.00,WeatherTracker,2013-03-17 16:15:00,
2013-03-17 12:25:00,36.4,13.2,30.05,North,5,4.0,0.0,38,0.00,,,0.00,WeatherTracker,2013-03-17 16:25:00,
2013-03-17 12:35:00,37.3,14.0,30.05,East,90,9.0,0.0,38,0.00,,,0.00,WeatherTracker,2013-03-17 16:35:00,
2013-03-17 12:40:00,37.0,11.3,30.05,NE,45,6.0,0.0,34,0.00,,,0.00,WeatherTracker,2013-03-17 16:40:00,
2013-03-17 12:45:00,36.8,11.7,30.05,NNE,14,9.0,0.0,35,0.00,,,0.00,WeatherTracker,2013-03-17 16:45:00,
2013-03-17 12:55:00,36.7,11.7,30.05,ESE,106,13.0,0.0,35,0.00,,,0.00,WeatherTracker,2013-03-17 16:55:00,
2013-03-17 13:05:00,36.7,11.7,30.05,WNW,303,3.0,0.0,35,0.00,,,0.00,WeatherTracker,2013-03-17 17:05:00,
2013-03-17 13:15:00,36.9,10.5,30.05,NNE,24,3.0,0.0,33,0.00,,,0.00,WeatherTracker,2013-03-17 17:15:00,
2013-03-17 13:20:00,36.9,9.8,30.04,ESE,107,14.0,0.0,32,0.00,,,0.00,WeatherTracker,2013-03-17 17:20:00,
2013-03-17 13:30:00,37.0,7.7,30.04,WNW,284,5.0,0.0,29,0.00,,,0.00,WeatherTracker,2013-03-17 17:30:00,
2013-03-17 13:40:00,37.6,7.5,30.04,North,5,4.0,0.0,28,0.00,,,0.00,WeatherTracker,2013-03-17 17:40:00,
2013-03-17 13:45:00,37.5,8.2,30.05,ENE,60,1.0,0.0,29,0.00,,,0.00,WeatherTracker,2013-03-17 17:45:00,
2013-03-17 13:55:00,38.1,7.9,30.05,NNE,24,6.0,0.0,28,0.00,,,0.00,WeatherTracker,2013-03-17 17:55:00,
2013-03-17 14:00:00,38.3,8.9,30.04,NW,319,4.0,0.0,29,0.00,,,0.00,WeatherTracker,2013-03-17 18:00:00,
2013-03-17 14:10:00,38.6,6.7,30.05,East,92,6.0,0.0,26,0.00,,,0.00,WeatherTracker,2013-03-17 18:10:00,
2013-03-17 14:20:00,38.2,7.2,30.05,NNE,32,12.0,0.0,27,0.00,,,0.00,WeatherTracker,2013-03-17 18:20:00,
2013-03-17 14:25:00,37.9,7.7,30.05,North,355,5.0,0.0,28,0.00,,,0.00,WeatherTracker,2013-03-17 18:25:00,
2013-03-17 14:35:00,38.5,8.3,30.05,ENE,76,14.0,0.0,28,0.00,,,0.00,WeatherTracker,2013-03-17 18:35:00,
2013-03-17 14:45:00,38.1,7.1,30.06,NNE,21,5.0,0.0,27,0.00,,,0.00,WeatherTracker,2013-03-17 18:45:00,
2013-03-17 14:50:00,37.8,7.7,30.06,East,86,13.0,0.0,28,0.00,,,0.00,WeatherTracker,2013-03-17 18:50:00,
2013-03-17 14:55:00,37.4,7.3,30.05,NNW,333,7.0,0.0,28,0.00,,,0.00,WeatherTracker,2013-03-17 18:55:00,
2013-03-17 15:00:00,37.3,8.0,30.05,East,87,9.0,0.0,29,0.00,,,0.00,WeatherTracker,2013-03-17 19:00:00,
2013-03-17 15:05:00,37.5,7.4,30.05,North,5,3.0,0.0,28,0.00,,,0.00,WeatherTracker,2013-03-17 19:05:00,
2013-03-17 15:10:00,37.9,7.7,30.06,ESE,109,5.0,0.0,28,0.00,,,0.00,WeatherTracker,2013-03-17 19:10:00,
2013-03-17 15:15:00,37.8,8.4,30.06,ENE,60,2.0,0.0,29,0.00,,,0.00,WeatherTracker,2013-03-17 19:15:00,
2013-03-17 15:20:00,38.0,8.6,30.06,NNW,342,4.0,0.0,29,0.00,,,0.00,WeatherTracker,2013-03-17 19:20:00,
2013-03-17 15:25:00,38.0,7.8,30.06,NNW,336,4.0,0.0,28,0.00,,,0.00,WeatherTracker,2013-03-17 19:25:00,
2013-03-17 15:30:00,38.2,8.0,30.07,ESE,117,4.0,0.0,28,0.00,,,0.00,WeatherTracker,2013-03-17 19:30:00,
2013-03-17 15:40:00,38.4,8.2,30.07,NNE,15,3.0,0.0,28,0.00,,,0.00,WeatherTracker,2013-03-17 19:40:00,
2013-03-17 15:50:00,37.4,6.5,30.07,East,82,5.0,0.0,27,0.00,,,0.00,WeatherTracker,2013-03-17 19:50:00,
2013-03-17 15:55:00,37.5,8.2,30.08,NNE,32,7.0,0.0,29,0.00,,,0.00,WeatherTracker,2013-03-17 19:55:00,
2013-03-17 16:05:00,37.5,7.4,30.08,ESE,119,8.0,0.0,28,0.00,,,0.00,WeatherTracker,2013-03-17 20:05:00,
2013-03-17 16:10:00,37.7,7.6,30.07,North,355,3.0,0.0,28,0.00,,,0.00,WeatherTracker,2013-03-17 20:10:00,
2013-03-17 16:15:00,37.7,6.8,30.08,NE,46,0.0,0.0,27,0.00,,,0.00,WeatherTracker,2013-03-17 20:15:00,
2013-03-17 16:20:00,37.9,6.9,30.08,NNE,24,4.0,0.0,27,0.00,,,0.00,WeatherTracker,2013-03-17 20:20:00,
2013-03-17 16:25:00,37.7,6.8,30.08,North,350,3.0,0.0,27,0.00,,,0.00,WeatherTracker,2013-03-17 20:25:00,
2013-03-17 16:30:00,37.5,6.6,30.08,WNW,291,5.0,0.0,27,0.00,,,0.00,WeatherTracker,2013-03-17 20:30:00,
2013-03-17 16:40:00,37.6,6.7,30.08,SSE,153,3.0,0.0,27,0.00,,,0.00,WeatherTracker,2013-03-17 20:40:00,
2013-03-17 16:45:00,37.7,5.1,30.09,WNW,283,5.0,0.0,25,0.00,,,0.00,WeatherTracker,2013-03-17 20:45:00,
2013-03-17 16:50:00,37.4,4.8,30.09,NNW,340,3.0,0.0,25,0.00,,,0.00,WeatherTracker,2013-03-17 20:50:00,
2013-03-17 17:00:00,37.1,2.8,30.09,North,5,3.0,0.0,23,0.00,,,0.00,WeatherTracker,2013-03-17 21:00:00,
2013-03-17 17:05:00,36.8,3.4,30.10,NNE,15,10.0,0.0,24,0.00,,,0.00,WeatherTracker,2013-03-17 21:05:00,
2013-03-17 17:15:00,36.4,4.0,30.11,NW,305,6.0,0.0,25,0.00,,,0.00,WeatherTracker,2013-03-17 21:15:00,
2013-03-17 17:20:00,36.4,3.1,30.11,North,355,1.0,0.0,24,0.00,,,0.00,WeatherTracker,2013-03-17 21:20:00,
2013-03-17 17:25:00,36.5,4.1,30.11,North,5,6.0,0.0,25,0.00,,,0.00,WeatherTracker,2013-03-17 21:25:00,
2013-03-17 17:35:00,36.3,3.9,30.11,West,265,3.0,0.0,25,0.00,,,0.00,WeatherTracker,2013-03-17 21:35:00,
2013-03-17 17:40:00,36.3,3.9,30.11,NW,316,1.0,0.0,25,0.00,,,0.00,WeatherTracker,2013-03-17 21:40:00,
2013-03-17 17:50:00,36.3,3.9,30.12,NNE,21,5.0,0.0,25,0.00,,,0.00,WeatherTracker,2013-03-17 21:50:00,
2013-03-17 17:55:00,36.1,4.6,30.12,NNW,330,7.0,0.0,26,0.00,,,0.00,WeatherTracker,2013-03-17 21:55:00,
2013-03-17 18:00:00,35.9,4.4,30.12,NW,320,5.0,0.0,26,0.00,,,0.00,WeatherTracker,2013-03-17 22:00:00,
2013-03-17 18:05:00,35.7,4.2,30.13,NE,42,5.0,0.0,26,0.00,,,0.00,WeatherTracker,2013-03-17 22:05:00,
2013-03-17 18:15:00,35.3,4.7,30.13,North,360,3.0,0.0,27,0.00,,,0.00,WeatherTracker,2013-03-17 22:15:00,
2013-03-17 18:25:00,34.9,4.4,30.14,North,9,2.0,0.0,27,0.00,,,0.00,WeatherTracker,2013-03-17 22:25:00,
2013-03-17 18:30:00,34.7,5.0,30.14,ENE,59,7.0,0.0,28,0.00,,,0.00,WeatherTracker,2013-03-17 22:30:00,
2013-03-17 18:35:00,34.5,4.8,30.14,NNE,29,2.0,0.0,28,0.00,,,0.00,WeatherTracker,2013-03-17 22:35:00,
2013-03-17 18:45:00,34.2,5.3,30.15,NNE,18,6.0,0.0,29,0.00,,,0.00,WeatherTracker,2013-03-17 22:45:00,
2013-03-17 18:55:00,33.9,5.0,30.15,South,170,0.0,0.0,29,0.00,,,0.00,WeatherTracker,2013-03-17 22:55:00,
2013-03-17 19:00:00,33.8,4.9,30.16,East,91,1.0,0.0,29,0.00,,,0.00,WeatherTracker,2013-03-17 23:00:00,
2013-03-17 19:10:00,33.5,5.4,30.17,SE,139,1.0,0.0,30,0.00,,,0.00,WeatherTracker,2013-03-17 23:10:00,
2013-03-17 19:15:00,33.4,5.3,30.17,NNE,31,2.0,0.0,30,0.00,,,0.00,WeatherTracker,2013-03-17 23:15:00,
2013-03-17 19:25:00,33.1,5.1,30.18,ENE,63,0.0,0.0,30,0.00,,,0.00,WeatherTracker,2013-03-17 23:25:00,
2013-03-17 19:30:00,33.0,5.7,30.18,NNE,30,0.0,0.0,31,0.00,,,0.00,WeatherTracker,2013-03-17 23:30:00,
2013-03-17 19:35:00,32.8,5.5,30.18,ENE,74,1.0,0.0,31,0.00,,,0.00,WeatherTracker,2013-03-17 23:35:00,
2013-03-17 19:40:00,32.6,5.4,30.19,NE,46,1.0,0.0,31,0.00,,,0.00,WeatherTracker,2013-03-17 23:40:00,
2013-03-17 19:45:00,32.5,6.0,30.19,North,11,1.0,0.0,32,0.00,,,0.00,WeatherTracker,2013-03-17 23:45:00,
2013-03-17 19:50:00,32.3,5.8,30.19,ENE,65,1.0,0.0,32,0.00,,,0.00,WeatherTracker,2013-03-17 23:50:00,
2013-03-17 20:00:00,31.9,5.4,30.20,ENE,77,0.0,0.0,32,0.00,,,0.00,WeatherTracker,2013-03-18 00:00:00,
2013-03-17 20:05:00,31.8,6.7,30.20,NW,304,1.0,0.0,34,0.00,,,0.00,WeatherTracker,2013-03-18 00:05:00,
2013-03-17 20:10:00,31.6,5.2,30.20,NE,36,1.0,0.0,32,0.00,,,0.00,WeatherTracker,2013-03-18 00:10:00,
2013-03-17 20:15:00,31.5,5.1,30.21,North,350,1.0,0.0,32,0.00,,,0.00,WeatherTracker,2013-03-18 00:15:00,
2013-03-17 20:20:00,31.5,5.7,30.21,NE,39,1.0,0.0,33,0.00,,,0.00,WeatherTracker,2013-03-18 00:20:00,
2013-03-17 20:25:00,31.4,5.7,30.21,NNW,346,1.0,0.0,33,0.00,,,0.00,WeatherTracker,2013-03-18 00:25:00,
2013-03-17 20:35:00,31.3,5.6,30.22,NNE,32,0.0,0.0,33,0.00,,,0.00,WeatherTracker,2013-03-18 00:35:00,
2013-03-17 20:40:00,31.2,6.8,30.22,ESE,115,1.0,0.0,35,0.00,,,0.00,WeatherTracker,2013-03-18 00:40:00,
2013-03-17 20:45:00,31.1,7.3,30.23,ESE,119,1.0,0.0,36,0.00,,,0.00,WeatherTracker,2013-03-18 00:45:00,
2013-03-17 20:55:00,30.8,7.0,30.23,East,85,0.0,0.0,36,0.00,,,0.00,WeatherTracker,2013-03-18 00:55:00,
2013-03-17 21:00:00,30.7,7.5,30.24,East,86,0.0,0.0,37,0.00,,,0.00,WeatherTracker,2013-03-18 01:00:00,
2013-03-17 21:05:00,30.5,7.4,30.24,East,97,1.0,0.0,37,0.00,,,0.00,WeatherTracker,2013-03-18 01:05:00,
2013-03-17 21:15:00,30.2,8.3,30.24,East,98,0.0,0.0,39,0.00,,,0.00,WeatherTracker,2013-03-18 01:15:00,
2013-03-17 21:20:00,30.1,8.2,30.25,East,95,2.0,0.0,39,0.00,,,0.00,WeatherTracker,2013-03-18 01:20:00,
2013-03-17 21:25:00,30.0,8.6,30.25,ENE,76,3.0,0.0,40,0.00,,,0.00,WeatherTracker,2013-03-18 01:25:00,
2013-03-17 21:35:00,29.8,8.5,30.26,NE,38,0.0,0.0,40,0.00,,,0.00,WeatherTracker,2013-03-18 01:35:00,
2013-03-17 21:40:00,29.8,8.5,30.26,NE,56,1.0,0.0,40,0.00,,,0.00,WeatherTracker,2013-03-18 01:40:00,
2013-03-17 21:45:00,29.7,9.4,30.26,NE,45,3.0,0.0,42,0.00,,,0.00,WeatherTracker,2013-03-18 01:45:00,
2013-03-17 21:55:00,29.5,9.3,30.27,ENE,66,5.0,0.0,42,0.00,,,0.00,WeatherTracker,2013-03-18 01:55:00,
2013-03-17 22:05:00,29.4,8.6,30.27,NNE,22,5.0,0.0,41,0.00,,,0.00,WeatherTracker,2013-03-18 02:05:00,
2013-03-17 22:10:00,29.3,8.6,30.27,SE,142,2.0,0.0,41,0.00,,,0.00,WeatherTracker,2013-03-18 02:10:00,
2013-03-17 22:15:00,29.3,7.4,30.28,East,81,7.0,0.0,39,0.00,,,0.00,WeatherTracker,2013-03-18 02:15:00,
2013-03-17 22:20:00,29.3,8.6,30.28,East,80,2.0,0.0,41,0.00,,,0.00,WeatherTracker,2013-03-18 02:20:00,
2013-03-17 22:30:00,29.2,6.8,30.29,ESE,123,4.0,0.0,38,0.00,,,0.00,WeatherTracker,2013-03-18 02:30:00,
2013-03-17 22:35:00,29.2,6.8,30.29,NE,44,2.0,0.0,38,0.00,,,0.00,WeatherTracker,2013-03-18 02:35:00,
2013-03-17 22:40:00,29.2,6.8,30.30,NE,46,1.0,0.0,38,0.00,,,0.00,WeatherTracker,2013-03-18 02:40:00,
2013-03-17 22:45:00,29.1,6.7,30.30,North,360,0.0,0.0,38,0.00,,,0.00,WeatherTracker,2013-03-18 02:45:00,
2013-03-17 22:55:00,28.8,6.4,30.30,East,89,2.0,0.0,38,0.00,,,0.00,WeatherTracker,2013-03-18 02:55:00,
2013-03-17 23:00:00,28.7,7.5,30.30,ENE,76,1.0,0.0,40,0.00,,,0.00,WeatherTracker,2013-03-18 03:00:00,
2013-03-17 23:05:00,28.6,6.8,30.31,ENE,67,0.0,0.0,39,0.00,,,0.00,WeatherTracker,2013-03-18 03:05:00,
2013-03-17 23:10:00,28.5,6.7,30.31,NNE,33,1.0,0.0,39,0.00,,,0.00,WeatherTracker,2013-03-18 03:10:00,
2013-03-17 23:20:00,28.2,7.0,30.31,ENE,72,2.0,0.0,40,0.00,,,0.00,WeatherTracker,2013-03-18 03:20:00,
2013-03-17 23:25:00,28.1,6.9,30.31,East,84,1.0,0.0,40,0.00,,,0.00,WeatherTracker,2013-03-18 03:25:00,
2013-03-17 23:30:00,28.0,6.8,30.32,SE,134,0.0,0.0,40,0.00,,,0.00,WeatherTracker,2013-03-18 03:30:00,
2013-03-17 23:40:00,27.7,6.6,30.32,NE,47,2.0,0.0,40,0.00,,,0.00,WeatherTracker,2013-03-18 03:40:00,
2013-03-17 23:50:00,27.4,6.8,30.32,East,96,1.0,0.0,41,0.00,,,0.00,WeatherTracker,2013-03-18 03:50:00,